sensor_id;sensor_type;location;lat;lon;timestamp;pressure;altitude;pressure_sealevel;temperature;humidity
55801;BME280;41730;51.960;20.158;2023-02-02T00:02:29;98976.02;;;3.71;78.59
55801;BME280;41730;51.960;20.158;2023-02-02T00:05:01;98967.04;;;3.68;78.76
55801;BME280;41730;51.960;20.158;2023-02-02T00:07:33;98969.19;;;3.74;78.69
55801;BME280;41730;51.960;20.158;2023-02-02T00:10:05;98959.54;;;3.82;78.54
55801;BME280;41730;51.960;20.158;2023-02-02T00:12:37;98959.30;;;3.81;78.40
55801;BME280;41730;51.960;20.158;2023-02-02T00:15:10;98961.99;;;3.73;78.73
55801;BME280;41730;51.960;20.158;2023-02-02T00:17:42;98960.41;;;3.71;78.91
55801;BME280;41730;51.960;20.158;2023-02-02T00:20:14;98965.34;;;3.81;78.68
55801;BME280;41730;51.960;20.158;2023-02-02T00:22:47;98968.40;;;3.94;78.26
55801;BME280;41730;51.960;20.158;2023-02-02T00:25:21;98963.80;;;4.00;77.99
55801;BME280;41730;51.960;20.158;2023-02-02T00:27:54;98961.55;;;4.04;77.78
55801;BME280;41730;51.960;20.158;2023-02-02T00:30:26;98964.68;;;3.97;78.06
55801;BME280;41730;51.960;20.158;2023-02-02T00:32:58;98961.74;;;3.85;78.38
55801;BME280;41730;51.960;20.158;2023-02-02T00:35:29;98962.80;;;3.80;78.66
55801;BME280;41730;51.960;20.158;2023-02-02T00:38:01;98956.45;;;3.73;78.83
55801;BME280;41730;51.960;20.158;2023-02-02T00:40:33;98953.67;;;3.66;79.06
55801;BME280;41730;51.960;20.158;2023-02-02T00:43:04;98957.98;;;3.73;79.16
55801;BME280;41730;51.960;20.158;2023-02-02T00:45:36;98956.77;;;3.69;79.24
55801;BME280;41730;51.960;20.158;2023-02-02T00:48:07;98953.90;;;3.58;79.52
55801;BME280;41730;51.960;20.158;2023-02-02T00:50:40;98953.27;;;3.55;79.77
55801;BME280;41730;51.960;20.158;2023-02-02T00:53:12;98953.55;;;3.55;79.66
55801;BME280;41730;51.960;20.158;2023-02-02T00:55:43;98958.67;;;3.50;79.92
55801;BME280;41730;51.960;20.158;2023-02-02T00:58:15;98956.53;;;3.48;80.08
55801;BME280;41730;51.960;20.158;2023-02-02T01:00:46;98956.48;;;3.63;79.81
55801;BME280;41730;51.960;20.158;2023-02-02T01:03:18;98958.88;;;3.70;79.54
55801;BME280;41730;51.960;20.158;2023-02-02T01:05:50;98957.40;;;3.67;79.38
55801;BME280;41730;51.960;20.158;2023-02-02T01:08:22;98953.98;;;3.59;79.95
55801;BME280;41730;51.960;20.158;2023-02-02T01:10:54;98953.02;;;3.53;79.95
55801;BME280;41730;51.960;20.158;2023-02-02T01:13:27;98953.14;;;3.49;80.21
55801;BME280;41730;51.960;20.158;2023-02-02T01:16:00;98951.11;;;3.51;80.20
55801;BME280;41730;51.960;20.158;2023-02-02T01:18:32;98947.70;;;3.62;79.92
55801;BME280;41730;51.960;20.158;2023-02-02T01:21:05;98949.15;;;3.68;79.72
55801;BME280;41730;51.960;20.158;2023-02-02T01:23:38;98953.85;;;3.75;79.40
55801;BME280;41730;51.960;20.158;2023-02-02T01:26:12;98956.49;;;3.75;79.37
55801;BME280;41730;51.960;20.158;2023-02-02T01:28:44;98955.08;;;3.63;79.67
55801;BME280;41730;51.960;20.158;2023-02-02T01:31:17;98959.88;;;3.64;79.88
55801;BME280;41730;51.960;20.158;2023-02-02T01:33:49;98955.39;;;3.69;79.73
55801;BME280;41730;51.960;20.158;2023-02-02T01:36:22;98955.70;;;3.61;79.90
55801;BME280;41730;51.960;20.158;2023-02-02T01:38:54;98962.70;;;3.58;80.28
55801;BME280;41730;51.960;20.158;2023-02-02T01:41:26;98958.78;;;3.62;80.10
55801;BME280;41730;51.960;20.158;2023-02-02T01:44:00;98955.90;;;3.59;80.30
55801;BME280;41730;51.960;20.158;2023-02-02T01:46:33;98953.83;;;3.61;80.33
55801;BME280;41730;51.960;20.158;2023-02-02T01:49:08;98950.22;;;3.77;79.70
55801;BME280;41730;51.960;20.158;2023-02-02T01:51:45;98951.35;;;3.76;79.84
55801;BME280;41730;51.960;20.158;2023-02-02T01:54:28;98947.98;;;3.70;79.90
55801;BME280;41730;51.960;20.158;2023-02-02T01:57:04;98943.55;;;3.85;79.79
55801;BME280;41730;51.960;20.158;2023-02-02T01:59:37;98942.55;;;3.90;79.51
55801;BME280;41730;51.960;20.158;2023-02-02T02:02:09;98939.59;;;3.92;79.44
55801;BME280;41730;51.960;20.158;2023-02-02T02:04:42;98942.77;;;3.91;79.47
55801;BME280;41730;51.960;20.158;2023-02-02T02:07:14;98938.88;;;3.83;79.96
55801;BME280;41730;51.960;20.158;2023-02-02T02:09:46;98938.50;;;3.86;79.94
55801;BME280;41730;51.960;20.158;2023-02-02T02:12:17;98938.46;;;4.00;79.78
55801;BME280;41730;51.960;20.158;2023-02-02T02:14:50;98939.20;;;4.09;79.23
55801;BME280;41730;51.960;20.158;2023-02-02T02:17:50;98938.80;;;4.02;79.70
55801;BME280;41730;51.960;20.158;2023-02-02T02:20:41;98941.31;;;4.08;79.32
55801;BME280;41730;51.960;20.158;2023-02-02T02:24:05;98945.11;;;4.04;79.70
55801;BME280;41730;51.960;20.158;2023-02-02T02:27:24;98950.89;;;4.08;79.54
55801;BME280;41730;51.960;20.158;2023-02-02T02:33:22;98942.90;;;4.17;79.07
55801;BME280;41730;51.960;20.158;2023-02-02T02:36:02;98941.80;;;4.11;79.36
55801;BME280;41730;51.960;20.158;2023-02-02T02:38:41;98944.27;;;4.08;79.49
55801;BME280;41730;51.960;20.158;2023-02-02T02:41:20;98941.95;;;4.11;79.51
55801;BME280;41730;51.960;20.158;2023-02-02T02:43:56;98942.83;;;4.07;79.61
55801;BME280;41730;51.960;20.158;2023-02-02T02:46:29;98944.59;;;4.01;79.87
55801;BME280;41730;51.960;20.158;2023-02-02T02:49:02;98947.57;;;4.08;79.78
55801;BME280;41730;51.960;20.158;2023-02-02T02:51:51;98948.08;;;4.11;79.54
55801;BME280;41730;51.960;20.158;2023-02-02T02:54:25;98945.67;;;4.05;79.72
55801;BME280;41730;51.960;20.158;2023-02-02T02:57:12;98945.39;;;3.97;80.06
55801;BME280;41730;51.960;20.158;2023-02-02T02:59:54;98946.92;;;4.02;80.06
55801;BME280;41730;51.960;20.158;2023-02-02T03:02:34;98945.81;;;4.06;79.83
55801;BME280;41730;51.960;20.158;2023-02-02T03:05:18;98951.51;;;4.13;79.59
55801;BME280;41730;51.960;20.158;2023-02-02T03:07:56;98955.17;;;4.11;79.75
55801;BME280;41730;51.960;20.158;2023-02-02T03:10:33;98954.98;;;4.13;79.53
55801;BME280;41730;51.960;20.158;2023-02-02T03:13:08;98962.20;;;4.21;79.45
55801;BME280;41730;51.960;20.158;2023-02-02T03:15:43;98956.98;;;4.19;79.36
55801;BME280;41730;51.960;20.158;2023-02-02T03:18:16;98960.27;;;4.19;79.41
55801;BME280;41730;51.960;20.158;2023-02-02T03:20:49;98960.89;;;4.27;79.31
55801;BME280;41730;51.960;20.158;2023-02-02T03:23:20;98962.34;;;4.37;78.89
55801;BME280;41730;51.960;20.158;2023-02-02T03:25:52;98959.83;;;4.27;78.87
55801;BME280;41730;51.960;20.158;2023-02-02T03:28:25;98966.23;;;4.24;79.15
55801;BME280;41730;51.960;20.158;2023-02-02T03:30:59;98968.64;;;4.18;79.21
55801;BME280;41730;51.960;20.158;2023-02-02T03:33:32;98968.96;;;4.14;79.46
55801;BME280;41730;51.960;20.158;2023-02-02T03:36:07;98968.39;;;4.12;79.75
55801;BME280;41730;51.960;20.158;2023-02-02T03:38:38;98966.48;;;4.24;79.32
55801;BME280;41730;51.960;20.158;2023-02-02T03:41:10;98970.70;;;4.30;79.15
55801;BME280;41730;51.960;20.158;2023-02-02T03:43:41;98968.23;;;4.31;79.02
55801;BME280;41730;51.960;20.158;2023-02-02T03:46:13;98971.84;;;4.20;79.20
55801;BME280;41730;51.960;20.158;2023-02-02T03:48:45;98966.90;;;4.09;79.65
55801;BME280;41730;51.960;20.158;2023-02-02T03:51:16;98967.98;;;4.16;79.46
55801;BME280;41730;51.960;20.158;2023-02-02T03:53:48;98967.02;;;4.12;79.47
55801;BME280;41730;51.960;20.158;2023-02-02T03:56:19;98969.75;;;4.17;79.07
55801;BME280;41730;51.960;20.158;2023-02-02T03:58:51;98975.25;;;4.09;79.49
55801;BME280;41730;51.960;20.158;2023-02-02T04:01:27;98974.70;;;4.09;79.45
55801;BME280;41730;51.960;20.158;2023-02-02T04:03:59;98974.92;;;4.22;79.01
55801;BME280;41730;51.960;20.158;2023-02-02T04:06:31;98973.70;;;4.23;78.75
55801;BME280;41730;51.960;20.158;2023-02-02T04:09:02;98977.56;;;4.17;79.08
55801;BME280;41730;51.960;20.158;2023-02-02T04:11:34;98977.48;;;4.23;78.87
55801;BME280;41730;51.960;20.158;2023-02-02T04:14:08;98974.55;;;4.20;78.86
55801;BME280;41730;51.960;20.158;2023-02-02T04:16:39;98972.73;;;4.21;78.95
55801;BME280;41730;51.960;20.158;2023-02-02T04:19:11;98973.00;;;4.25;78.74
55801;BME280;41730;51.960;20.158;2023-02-02T04:21:43;98971.08;;;4.27;78.66
55801;BME280;41730;51.960;20.158;2023-02-02T04:24:15;98969.85;;;4.25;78.68
55801;BME280;41730;51.960;20.158;2023-02-02T04:26:46;98966.54;;;4.28;78.77
55801;BME280;41730;51.960;20.158;2023-02-02T04:29:18;98964.29;;;4.21;78.80
55801;BME280;41730;51.960;20.158;2023-02-02T04:31:49;98968.67;;;4.13;79.00
55801;BME280;41730;51.960;20.158;2023-02-02T04:34:21;98965.24;;;4.11;79.13
55801;BME280;41730;51.960;20.158;2023-02-02T04:36:55;98966.04;;;4.18;79.15
55801;BME280;41730;51.960;20.158;2023-02-02T04:39:31;98963.21;;;4.30;78.68
55801;BME280;41730;51.960;20.158;2023-02-02T04:42:07;98959.52;;;4.35;78.30
55801;BME280;41730;51.960;20.158;2023-02-02T04:44:40;98957.02;;;4.25;78.59
55801;BME280;41730;51.960;20.158;2023-02-02T04:47:13;98958.59;;;4.20;78.77
55801;BME280;41730;51.960;20.158;2023-02-02T04:49:44;98952.90;;;4.18;78.79
55801;BME280;41730;51.960;20.158;2023-02-02T04:52:16;98949.52;;;4.10;78.93
55801;BME280;41730;51.960;20.158;2023-02-02T04:54:47;98957.80;;;4.01;79.33
55801;BME280;41730;51.960;20.158;2023-02-02T04:57:19;98959.37;;;4.03;79.34
55801;BME280;41730;51.960;20.158;2023-02-02T04:59:51;98949.68;;;4.17;78.86
55801;BME280;41730;51.960;20.158;2023-02-02T05:02:22;98951.16;;;4.15;78.92
55801;BME280;41730;51.960;20.158;2023-02-02T05:04:54;98959.77;;;4.37;78.27
55801;BME280;41730;51.960;20.158;2023-02-02T05:07:25;98954.02;;;4.37;78.16
55801;BME280;41730;51.960;20.158;2023-02-02T05:09:57;98946.82;;;4.40;77.94
55801;BME280;41730;51.960;20.158;2023-02-02T05:12:29;98945.77;;;4.38;77.89
55801;BME280;41730;51.960;20.158;2023-02-02T05:15:00;98945.84;;;4.26;78.24
55801;BME280;41730;51.960;20.158;2023-02-02T05:17:32;98944.16;;;4.21;78.38
55801;BME280;41730;51.960;20.158;2023-02-02T05:20:05;98948.60;;;4.13;78.55
55801;BME280;41730;51.960;20.158;2023-02-02T05:22:36;98941.94;;;4.16;78.57
55801;BME280;41730;51.960;20.158;2023-02-02T05:25:09;98943.20;;;4.15;78.65
55801;BME280;41730;51.960;20.158;2023-02-02T05:27:43;98940.98;;;4.15;78.60
55801;BME280;41730;51.960;20.158;2023-02-02T05:30:16;98936.05;;;4.18;78.35
55801;BME280;41730;51.960;20.158;2023-02-02T05:32:47;98937.48;;;4.17;78.27
55801;BME280;41730;51.960;20.158;2023-02-02T05:35:19;98931.52;;;4.02;78.50
55801;BME280;41730;51.960;20.158;2023-02-02T05:37:51;98927.36;;;4.11;78.78
55801;BME280;41730;51.960;20.158;2023-02-02T05:40:23;98924.27;;;4.33;77.90
55801;BME280;41730;51.960;20.158;2023-02-02T05:42:55;98920.90;;;4.36;77.45
55801;BME280;41730;51.960;20.158;2023-02-02T05:45:27;98917.77;;;4.15;78.10
55801;BME280;41730;51.960;20.158;2023-02-02T05:47:59;98918.64;;;3.89;78.96
55801;BME280;41730;51.960;20.158;2023-02-02T05:50:31;98914.33;;;3.73;79.62
55801;BME280;41730;51.960;20.158;2023-02-02T05:53:03;98914.24;;;3.85;79.44
55801;BME280;41730;51.960;20.158;2023-02-02T05:55:34;98910.91;;;4.06;78.80
55801;BME280;41730;51.960;20.158;2023-02-02T05:58:06;98909.92;;;4.15;78.27
55801;BME280;41730;51.960;20.158;2023-02-02T06:00:38;98910.09;;;4.03;78.55
55801;BME280;41730;51.960;20.158;2023-02-02T06:03:09;98909.61;;;3.89;79.08
55801;BME280;41730;51.960;20.158;2023-02-02T06:05:42;98906.48;;;3.85;79.33
55801;BME280;41730;51.960;20.158;2023-02-02T06:08:14;98899.91;;;3.91;79.03
55801;BME280;41730;51.960;20.158;2023-02-02T06:10:45;98901.84;;;3.86;79.15
55801;BME280;41730;51.960;20.158;2023-02-02T06:13:17;98895.39;;;3.80;79.40
55801;BME280;41730;51.960;20.158;2023-02-02T06:15:49;98895.59;;;3.73;79.46
55801;BME280;41730;51.960;20.158;2023-02-02T06:18:21;98894.72;;;3.78;79.42
55801;BME280;41730;51.960;20.158;2023-02-02T06:20:58;98891.75;;;3.69;79.76
55801;BME280;41730;51.960;20.158;2023-02-02T06:23:30;98889.13;;;3.69;79.74
55801;BME280;41730;51.960;20.158;2023-02-02T06:26:03;98883.70;;;3.83;79.40
55801;BME280;41730;51.960;20.158;2023-02-02T06:28:37;98884.27;;;3.87;79.08
55801;BME280;41730;51.960;20.158;2023-02-02T06:31:10;98878.95;;;3.71;79.39
55801;BME280;41730;51.960;20.158;2023-02-02T06:33:42;98875.18;;;3.60;79.79
55801;BME280;41730;51.960;20.158;2023-02-02T06:36:14;98876.98;;;3.65;79.54
55801;BME280;41730;51.960;20.158;2023-02-02T06:38:49;98869.98;;;3.61;79.72
55801;BME280;41730;51.960;20.158;2023-02-02T06:41:21;98871.17;;;3.73;79.21
55801;BME280;41730;51.960;20.158;2023-02-02T06:43:53;98869.27;;;3.70;79.14
55801;BME280;41730;51.960;20.158;2023-02-02T06:46:25;98870.93;;;3.64;79.20
55801;BME280;41730;51.960;20.158;2023-02-02T06:48:56;98869.52;;;3.46;79.52
55801;BME280;41730;51.960;20.158;2023-02-02T06:51:28;98862.14;;;3.48;79.62
55801;BME280;41730;51.960;20.158;2023-02-02T06:54:00;98862.70;;;3.45;79.62
55801;BME280;41730;51.960;20.158;2023-02-02T06:56:32;98859.71;;;3.40;79.68
55801;BME280;41730;51.960;20.158;2023-02-02T06:59:04;98857.86;;;3.30;80.03
55801;BME280;41730;51.960;20.158;2023-02-02T07:01:36;98858.59;;;3.28;80.28
55801;BME280;41730;51.960;20.158;2023-02-02T07:04:07;98855.99;;;3.35;79.99
55801;BME280;41730;51.960;20.158;2023-02-02T07:06:39;98856.67;;;3.26;80.19
55801;BME280;41730;51.960;20.158;2023-02-02T07:09:11;98854.38;;;3.14;80.73
55801;BME280;41730;51.960;20.158;2023-02-02T07:11:42;98851.73;;;3.12;80.77
55801;BME280;41730;51.960;20.158;2023-02-02T07:14:14;98848.23;;;3.10;81.04
55801;BME280;41730;51.960;20.158;2023-02-02T07:16:46;98844.75;;;3.11;81.03
55801;BME280;41730;51.960;20.158;2023-02-02T07:19:17;98843.83;;;3.19;80.90
55801;BME280;41730;51.960;20.158;2023-02-02T07:21:49;98839.48;;;3.26;80.45
55801;BME280;41730;51.960;20.158;2023-02-02T07:24:22;98835.99;;;3.31;80.49
55801;BME280;41730;51.960;20.158;2023-02-02T07:26:54;98832.66;;;3.34;80.32
55801;BME280;41730;51.960;20.158;2023-02-02T07:29:27;98829.61;;;3.33;80.43
55801;BME280;41730;51.960;20.158;2023-02-02T07:32:00;98827.06;;;3.35;80.41
55801;BME280;41730;51.960;20.158;2023-02-02T07:34:32;98828.23;;;3.40;80.25
55801;BME280;41730;51.960;20.158;2023-02-02T07:37:03;98823.60;;;3.51;80.06
55801;BME280;41730;51.960;20.158;2023-02-02T07:39:35;98822.88;;;3.51;79.65
55801;BME280;41730;51.960;20.158;2023-02-02T07:42:06;98830.01;;;3.53;79.71
55801;BME280;41730;51.960;20.158;2023-02-02T07:44:40;98829.86;;;3.46;79.74
55801;BME280;41730;51.960;20.158;2023-02-02T07:47:12;98831.59;;;3.37;79.97
55801;BME280;41730;51.960;20.158;2023-02-02T07:49:43;98834.25;;;3.22;80.47
55801;BME280;41730;51.960;20.158;2023-02-02T07:52:15;98841.91;;;3.16;80.69
55801;BME280;41730;51.960;20.158;2023-02-02T07:54:47;98838.32;;;3.11;80.94
55801;BME280;41730;51.960;20.158;2023-02-02T07:57:19;98847.43;;;3.08;80.93
55801;BME280;41730;51.960;20.158;2023-02-02T07:59:50;98841.67;;;3.03;81.27
55801;BME280;41730;51.960;20.158;2023-02-02T08:02:23;98842.95;;;3.05;81.01
55801;BME280;41730;51.960;20.158;2023-02-02T08:04:55;98844.04;;;2.97;80.94
55801;BME280;41730;51.960;20.158;2023-02-02T08:07:26;98848.29;;;2.86;81.28
55801;BME280;41730;51.960;20.158;2023-02-02T08:10:02;98855.77;;;2.88;81.15
55801;BME280;41730;51.960;20.158;2023-02-02T08:12:34;98857.17;;;2.88;81.16
55801;BME280;41730;51.960;20.158;2023-02-02T08:15:07;98862.41;;;2.83;81.41
55801;BME280;41730;51.960;20.158;2023-02-02T08:17:45;98866.28;;;2.84;81.44
55801;BME280;41730;51.960;20.158;2023-02-02T08:20:19;98866.77;;;2.96;81.07
55801;BME280;41730;51.960;20.158;2023-02-02T08:22:51;98863.44;;;2.99;80.88
55801;BME280;41730;51.960;20.158;2023-02-02T08:25:22;98867.67;;;3.03;80.84
55801;BME280;41730;51.960;20.158;2023-02-02T08:27:55;98870.33;;;3.07;80.89
55801;BME280;41730;51.960;20.158;2023-02-02T08:30:31;98873.26;;;3.07;81.01
55801;BME280;41730;51.960;20.158;2023-02-02T08:33:04;98885.78;;;3.11;81.01
55801;BME280;41730;51.960;20.158;2023-02-02T08:35:41;98885.42;;;3.18;81.05
55801;BME280;41730;51.960;20.158;2023-02-02T08:38:12;98888.80;;;3.32;80.90
55801;BME280;41730;51.960;20.158;2023-02-02T08:40:44;98895.30;;;3.42;80.92
55801;BME280;41730;51.960;20.158;2023-02-02T08:43:15;98894.19;;;3.43;80.78
55801;BME280;41730;51.960;20.158;2023-02-02T08:45:47;98899.36;;;3.45;80.89
55801;BME280;41730;51.960;20.158;2023-02-02T08:48:34;98903.71;;;3.55;80.93
55801;BME280;41730;51.960;20.158;2023-02-02T08:51:07;98908.77;;;3.63;80.79
55801;BME280;41730;51.960;20.158;2023-02-02T08:53:40;98913.30;;;3.66;80.64
55801;BME280;41730;51.960;20.158;2023-02-02T08:56:13;98915.02;;;3.63;80.96
55801;BME280;41730;51.960;20.158;2023-02-02T08:58:47;98918.81;;;3.73;81.10
55801;BME280;41730;51.960;20.158;2023-02-02T09:01:20;98921.77;;;3.71;80.92
55801;BME280;41730;51.960;20.158;2023-02-02T09:03:56;98926.82;;;3.68;81.24
55801;BME280;41730;51.960;20.158;2023-02-02T09:06:30;98932.48;;;3.71;81.12
55801;BME280;41730;51.960;20.158;2023-02-02T09:09:03;98934.43;;;3.70;81.32
55801;BME280;41730;51.960;20.158;2023-02-02T09:11:36;98941.98;;;3.79;81.41
55801;BME280;41730;51.960;20.158;2023-02-02T09:14:09;98945.85;;;3.92;80.88
55801;BME280;41730;51.960;20.158;2023-02-02T09:16:41;98951.30;;;3.88;81.06
55801;BME280;41730;51.960;20.158;2023-02-02T09:19:13;98953.67;;;3.89;81.22
55801;BME280;41730;51.960;20.158;2023-02-02T09:21:44;98958.06;;;3.97;81.09
55801;BME280;41730;51.960;20.158;2023-02-02T09:24:16;98964.34;;;4.01;80.76
55801;BME280;41730;51.960;20.158;2023-02-02T09:26:48;98968.73;;;3.98;80.98
55801;BME280;41730;51.960;20.158;2023-02-02T09:29:20;98976.02;;;3.98;81.23
55801;BME280;41730;51.960;20.158;2023-02-02T09:31:54;98979.54;;;4.14;80.71
55801;BME280;41730;51.960;20.158;2023-02-02T09:34:26;98987.23;;;4.09;80.57
55801;BME280;41730;51.960;20.158;2023-02-02T09:36:58;98990.42;;;4.05;81.01
55801;BME280;41730;51.960;20.158;2023-02-02T09:39:30;98997.15;;;3.99;81.20
55801;BME280;41730;51.960;20.158;2023-02-02T09:42:11;99001.11;;;4.01;81.39
55801;BME280;41730;51.960;20.158;2023-02-02T09:44:56;99005.68;;;4.15;81.04
55801;BME280;41730;51.960;20.158;2023-02-02T09:47:40;99014.88;;;4.17;80.78
55801;BME280;41730;51.960;20.158;2023-02-02T09:50:21;99025.52;;;4.25;80.75
55801;BME280;41730;51.960;20.158;2023-02-02T09:52:57;99024.61;;;4.21;80.46
55801;BME280;41730;51.960;20.158;2023-02-02T09:55:33;99032.27;;;4.12;80.82
55801;BME280;41730;51.960;20.158;2023-02-02T09:58:11;99037.89;;;4.15;80.72
55801;BME280;41730;51.960;20.158;2023-02-02T10:00:47;99044.63;;;4.16;80.40
55801;BME280;41730;51.960;20.158;2023-02-02T10:03:26;99049.73;;;4.15;80.42
55801;BME280;41730;51.960;20.158;2023-02-02T10:06:03;99051.23;;;4.16;80.33
55801;BME280;41730;51.960;20.158;2023-02-02T10:08:40;99055.30;;;4.12;80.56
55801;BME280;41730;51.960;20.158;2023-02-02T10:11:30;99062.27;;;4.17;80.44
55801;BME280;41730;51.960;20.158;2023-02-02T10:14:08;99073.08;;;4.14;80.52
55801;BME280;41730;51.960;20.158;2023-02-02T10:16:43;99072.60;;;4.27;80.38
55801;BME280;41730;51.960;20.158;2023-02-02T10:19:17;99077.39;;;4.30;80.22
55801;BME280;41730;51.960;20.158;2023-02-02T10:21:56;99080.72;;;4.32;80.28
55801;BME280;41730;51.960;20.158;2023-02-02T10:24:32;99089.33;;;4.33;80.17
55801;BME280;41730;51.960;20.158;2023-02-02T10:27:07;99092.02;;;4.36;80.20
55801;BME280;41730;51.960;20.158;2023-02-02T10:29:50;99092.95;;;4.36;80.22
55801;BME280;41730;51.960;20.158;2023-02-02T10:32:26;99093.52;;;4.49;80.05
55801;BME280;41730;51.960;20.158;2023-02-02T10:35:15;99100.52;;;4.48;79.85
55801;BME280;41730;51.960;20.158;2023-02-02T10:37:54;99108.81;;;4.39;80.10
55801;BME280;41730;51.960;20.158;2023-02-02T10:40:38;99110.33;;;4.44;80.08
55801;BME280;41730;51.960;20.158;2023-02-02T10:43:28;99114.38;;;4.46;80.04
55801;BME280;41730;51.960;20.158;2023-02-02T10:46:20;99118.45;;;4.49;79.88
55801;BME280;41730;51.960;20.158;2023-02-02T10:49:04;99119.75;;;4.51;80.00
55801;BME280;41730;51.960;20.158;2023-02-02T10:51:41;99130.61;;;4.42;80.02
55801;BME280;41730;51.960;20.158;2023-02-02T10:54:28;99133.04;;;4.42;80.19
55801;BME280;41730;51.960;20.158;2023-02-02T10:57:32;99132.64;;;4.62;79.76
55801;BME280;41730;51.960;20.158;2023-02-02T11:00:17;99139.58;;;4.80;79.24
55801;BME280;41730;51.960;20.158;2023-02-02T11:02:52;99140.46;;;4.91;78.57
55801;BME280;41730;51.960;20.158;2023-02-02T11:05:26;99141.92;;;4.86;78.67
55801;BME280;41730;51.960;20.158;2023-02-02T11:08:17;99151.01;;;4.76;79.11
55801;BME280;41730;51.960;20.158;2023-02-02T11:10:51;99157.02;;;4.59;79.64
55801;BME280;41730;51.960;20.158;2023-02-02T11:13:28;99162.14;;;4.43;80.13
55801;BME280;41730;51.960;20.158;2023-02-02T11:16:22;99164.45;;;4.43;80.33
55801;BME280;41730;51.960;20.158;2023-02-02T11:19:26;99165.59;;;4.56;79.79
55801;BME280;41730;51.960;20.158;2023-02-02T11:22:00;99172.73;;;4.48;80.27
55801;BME280;41730;51.960;20.158;2023-02-02T11:24:37;99170.04;;;4.68;79.40
55801;BME280;41730;51.960;20.158;2023-02-02T11:27:16;99173.26;;;4.66;79.61
55801;BME280;41730;51.960;20.158;2023-02-02T11:29:51;99179.66;;;4.62;79.56
55801;BME280;41730;51.960;20.158;2023-02-02T11:32:30;99188.52;;;4.55;79.93
55801;BME280;41730;51.960;20.158;2023-02-02T11:35:22;99192.09;;;4.51;80.03
55801;BME280;41730;51.960;20.158;2023-02-02T11:38:08;99194.96;;;4.64;79.51
55801;BME280;41730;51.960;20.158;2023-02-02T11:40:43;99205.08;;;4.55;79.69
55801;BME280;41730;51.960;20.158;2023-02-02T11:43:22;99206.84;;;4.39;80.08
55801;BME280;41730;51.960;20.158;2023-02-02T11:45:58;99210.98;;;4.33;80.27
55801;BME280;41730;51.960;20.158;2023-02-02T11:48:34;99216.92;;;4.30;80.57
55801;BME280;41730;51.960;20.158;2023-02-02T11:51:05;99218.55;;;4.40;80.14
55801;BME280;41730;51.960;20.158;2023-02-02T11:53:43;99221.02;;;4.47;79.57
55801;BME280;41730;51.960;20.158;2023-02-02T11:56:22;99226.20;;;4.34;80.11
55801;BME280;41730;51.960;20.158;2023-02-02T11:58:56;99234.55;;;4.23;80.48
55801;BME280;41730;51.960;20.158;2023-02-02T12:01:34;99242.11;;;4.22;80.43
55801;BME280;41730;51.960;20.158;2023-02-02T12:04:24;99241.73;;;4.27;80.34
55801;BME280;41730;51.960;20.158;2023-02-02T12:06:56;99248.98;;;4.16;80.66
55801;BME280;41730;51.960;20.158;2023-02-02T12:09:28;99259.89;;;4.12;81.04
55801;BME280;41730;51.960;20.158;2023-02-02T12:12:05;99260.77;;;4.16;80.69
55801;BME280;41730;51.960;20.158;2023-02-02T12:14:47;99264.42;;;4.20;80.87
55801;BME280;41730;51.960;20.158;2023-02-02T12:17:31;99276.19;;;4.24;80.60
55801;BME280;41730;51.960;20.158;2023-02-02T12:20:20;99281.34;;;4.17;80.82
55801;BME280;41730;51.960;20.158;2023-02-02T12:23:14;99296.57;;;4.22;80.77
55801;BME280;41730;51.960;20.158;2023-02-02T12:25:53;99297.98;;;4.34;80.58
55801;BME280;41730;51.960;20.158;2023-02-02T12:28:40;99304.64;;;4.33;80.47
55801;BME280;41730;51.960;20.158;2023-02-02T12:31:21;99307.77;;;4.31;80.71
55801;BME280;41730;51.960;20.158;2023-02-02T12:34:02;99315.84;;;4.27;81.05
55801;BME280;41730;51.960;20.158;2023-02-02T12:36:45;99318.79;;;4.20;81.47
55801;BME280;41730;51.960;20.158;2023-02-02T12:39:36;99325.76;;;4.34;81.39
55801;BME280;41730;51.960;20.158;2023-02-02T12:42:31;99328.88;;;4.51;80.62
55801;BME280;41730;51.960;20.158;2023-02-02T12:45:27;99340.79;;;4.42;80.86
55801;BME280;41730;51.960;20.158;2023-02-02T12:48:24;99343.25;;;4.47;80.92
55801;BME280;41730;51.960;20.158;2023-02-02T12:51:00;99351.71;;;4.55;80.96
55801;BME280;41730;51.960;20.158;2023-02-02T12:53:55;99352.96;;;4.71;80.09
55801;BME280;41730;51.960;20.158;2023-02-02T12:56:50;99360.03;;;4.67;80.30
55801;BME280;41730;51.960;20.158;2023-02-02T12:59:40;99367.23;;;4.90;79.56
55801;BME280;41730;51.960;20.158;2023-02-02T13:02:23;99373.94;;;5.05;78.69
55801;BME280;41730;51.960;20.158;2023-02-02T13:05:12;99381.95;;;4.93;78.81
55801;BME280;41730;51.960;20.158;2023-02-02T13:08:10;99385.88;;;4.97;78.87
55801;BME280;41730;51.960;20.158;2023-02-02T13:10:44;99391.29;;;5.01;78.73
55801;BME280;41730;51.960;20.158;2023-02-02T13:13:16;99400.97;;;5.06;78.64
55801;BME280;41730;51.960;20.158;2023-02-02T13:15:50;99403.35;;;5.09;78.79
55801;BME280;41730;51.960;20.158;2023-02-02T13:18:27;99412.56;;;5.14;78.49
55801;BME280;41730;51.960;20.158;2023-02-02T13:21:03;99412.08;;;5.16;78.36
55801;BME280;41730;51.960;20.158;2023-02-02T13:23:40;99413.41;;;5.10;78.66
55801;BME280;41730;51.960;20.158;2023-02-02T13:26:18;99420.81;;;5.03;78.65
55801;BME280;41730;51.960;20.158;2023-02-02T13:28:52;99427.60;;;5.01;79.08
55801;BME280;41730;51.960;20.158;2023-02-02T13:31:29;99431.55;;;4.92;79.06
55801;BME280;41730;51.960;20.158;2023-02-02T13:34:10;99439.02;;;4.89;79.38
55801;BME280;41730;51.960;20.158;2023-02-02T13:36:48;99440.20;;;5.00;79.10
55801;BME280;41730;51.960;20.158;2023-02-02T13:39:25;99445.68;;;4.96;78.95
55801;BME280;41730;51.960;20.158;2023-02-02T13:42:01;99448.55;;;5.00;79.18
55801;BME280;41730;51.960;20.158;2023-02-02T13:44:36;99455.24;;;4.96;79.08
55801;BME280;41730;51.960;20.158;2023-02-02T13:47:14;99456.77;;;4.94;79.28
55801;BME280;41730;51.960;20.158;2023-02-02T13:49:50;99469.83;;;4.90;79.30